^^
Station Historical Data
Daily Summary for May 14, 2017 Units:  English    Metric   Both
« Previous Day
Next Day »
Daily Weekly Monthly Yearly Custom
  High: Low: Average:
Temperature: 70.2 °F 44.2 °F 55.3 °F
Dew Point: 54.3 °F 39.7 °F 47.1 °F
Humidity: 96 % 44 % 77 %
Wind Speed: 12.4 mph 0.0 mph 2.9 mph
Wind Gust: 23.0 mph - -
Wind:- - West
Pressure: 29.81 in 29.59 in -
Precipitation: 0.00 in    
Historical Graphs
 
 
Tabular Data for May 14, 2017
Time Temperature Dew Point Pressure Wind Wind Speed Wind Gust Humidity Rainfall Rate (Hourly) solar Conditions
00:00 48.0 °F 46.6 °F 29.80 in Calm     95 % 0.00 in 0.0 W/m2 RA
00:05 47.5 °F 46.1 °F 29.80 in Calm     95 % 0.00 in 0.0 W/m2 RA
00:10 47.5 °F 46.1 °F 29.80 in Calm     95 % 0.00 in 0.0 W/m2 BKN
00:15 47.3 °F 45.9 °F 29.80 in Calm     95 % 0.00 in 0.0 W/m2 BKN
00:20 47.4 °F 46.0 °F 29.80 in Calm     95 % 0.00 in 0.0 W/m2 BKN
00:25 47.3 °F 45.9 °F 29.80 in Calm     95 % 0.00 in 0.0 W/m2 BKN
00:30 47.4 °F 46.0 °F 29.81 in Calm     95 % 0.00 in 0.0 W/m2 BKN
00:35 47.1 °F 45.7 °F 29.81 in Calm     95 % 0.00 in 0.0 W/m2 BKN
00:40 46.9 °F 45.5 °F 29.81 in Calm     95 % 0.00 in 0.0 W/m2 BKN
00:45 47.0 °F 45.6 °F 29.81 in Calm     95 % 0.00 in 0.0 W/m2 BKN
00:50 46.9 °F 45.5 °F 29.81 in Calm   2.3 mph 95 % 0.00 in 0.0 W/m2 BKN
00:55 47.1 °F 45.7 °F 29.81 in Calm   3.5 mph 95 % 0.00 in 0.0 W/m2 BKN
01:00 47.2 °F 45.8 °F 29.81 in NW 1.6 mph 3.5 mph 95 % 0.00 in 0.0 W/m2 BKN
01:05 47.0 °F 45.6 °F 29.81 in Calm   3.5 mph 95 % 0.00 in 0.0 W/m2 OVC
01:10 46.7 °F 45.3 °F 29.81 in Calm   3.5 mph 95 % 0.00 in 0.0 W/m2 OVC
01:16 46.5 °F 45.1 °F 29.81 in Calm     95 % 0.00 in 0.0 W/m2 OVC
01:21 46.3 °F 44.9 °F 29.81 in Calm     95 % 0.00 in 0.0 W/m2 OVC
01:26 46.3 °F 44.9 °F 29.80 in Calm     95 % 0.00 in 0.0 W/m2 OVC
01:31 46.2 °F 44.8 °F 29.80 in Calm     95 % 0.00 in 0.0 W/m2 OVC
01:36 46.1 °F 44.7 °F 29.80 in Calm     95 % 0.00 in 0.0 W/m2 OVC
01:41 46.1 °F 44.7 °F 29.80 in Calm     95 % 0.00 in 0.0 W/m2 OVC
01:46 46.4 °F 45.0 °F 29.79 in Calm     95 % 0.00 in 0.0 W/m2 OVC
01:51 46.3 °F 44.9 °F 29.79 in Calm     95 % 0.00 in 0.0 W/m2 OVC
01:56 46.1 °F 44.7 °F 29.79 in Calm     95 % 0.00 in 0.0 W/m2 OVC
02:01 46.1 °F 44.7 °F 29.79 in Calm     95 % 0.00 in 0.0 W/m2 OVC
02:06 45.9 °F 44.5 °F 29.78 in Calm     95 % 0.00 in 0.0 W/m2 OVC
02:11 45.9 °F 44.5 °F 29.78 in Calm     95 % 0.00 in 0.0 W/m2 OVC
02:16 46.0 °F 44.6 °F 29.78 in Calm     95 % 0.00 in 0.0 W/m2 OVC
02:21 45.9 °F 44.5 °F 29.78 in Calm     95 % 0.00 in 0.0 W/m2 OVC
02:26 45.5 °F 44.2 °F 29.78 in Calm     95 % 0.00 in 0.0 W/m2 OVC
02:31 45.0 °F 43.7 °F 29.78 in Calm     95 % 0.00 in 0.0 W/m2 OVC
02:36 44.7 °F 43.4 °F 29.78 in Calm     95 % 0.00 in 0.0 W/m2 OVC
02:41 44.7 °F 43.4 °F 29.78 in Calm     95 % 0.00 in 0.0 W/m2 OVC
02:46 44.4 °F 43.1 °F 29.79 in Calm     95 % 0.00 in 0.0 W/m2 OVC
02:51 44.2 °F 42.9 °F 29.79 in Calm     95 % 0.00 in 0.0 W/m2 OVC
02:56 44.6 °F 43.5 °F 29.79 in Calm     96 % 0.00 in 0.0 W/m2 OVC
03:01 44.7 °F 43.6 °F 29.79 in Calm     96 % 0.00 in 0.0 W/m2 SCT
03:06 44.8 °F 43.7 °F 29.79 in Calm     96 % 0.00 in 0.0 W/m2 SCT
03:11 45.0 °F 43.9 °F 29.79 in Calm     96 % 0.00 in 0.0 W/m2 SCT
03:16 45.1 °F 44.0 °F 29.79 in Calm     96 % 0.00 in 0.0 W/m2 SCT
03:21 45.3 °F 44.2 °F 29.79 in Calm     96 % 0.00 in 0.0 W/m2 SCT
03:26 45.5 °F 44.4 °F 29.79 in Calm     96 % 0.00 in 0.0 W/m2 SCT
03:31 45.5 °F 44.4 °F 29.79 in Calm     96 % 0.00 in 0.0 W/m2 SCT
03:36 45.7 °F 44.6 °F 29.78 in Calm     96 % 0.00 in 0.0 W/m2 SCT
03:41 45.8 °F 44.7 °F 29.78 in Calm     96 % 0.00 in 0.0 W/m2 BKN
03:46 45.9 °F 44.8 °F 29.78 in Calm     96 % 0.00 in 0.0 W/m2 BKN
03:51 45.9 °F 44.8 °F 29.78 in Calm     96 % 0.00 in 0.0 W/m2 BKN
03:56 46.1 °F 45.0 °F 29.78 in Calm     96 % 0.00 in 0.0 W/m2 BKN
04:01 45.9 °F 44.8 °F 29.78 in Calm   1.2 mph 96 % 0.00 in 0.0 W/m2 OVC
04:06 45.9 °F 44.8 °F 29.78 in Calm   1.2 mph 96 % 0.00 in 0.0 W/m2 OVC
04:11 45.8 °F 44.7 °F 29.78 in Calm     96 % 0.00 in 0.0 W/m2 OVC
04:16 45.9 °F 44.8 °F 29.78 in Calm     96 % 0.00 in 0.0 W/m2 OVC
04:21 45.8 °F 44.7 °F 29.78 in Calm     96 % 0.00 in 0.0 W/m2 OVC
04:26 45.9 °F 44.8 °F 29.78 in Calm     96 % 0.00 in 0.0 W/m2 OVC
04:31 46.0 °F 44.9 °F 29.78 in Calm     96 % 0.00 in 0.0 W/m2 OVC
04:36 46.2 °F 45.1 °F 29.78 in Calm     96 % 0.00 in 0.0 W/m2 OVC
04:41 46.3 °F 45.2 °F 29.77 in Calm     96 % 0.00 in 0.0 W/m2 OVC
04:46 46.3 °F 45.2 °F 29.77 in Calm     96 % 0.00 in 0.0 W/m2 OVC
04:52 46.2 °F 45.1 °F 29.77 in Calm     96 % 0.00 in 0.0 W/m2 OVC
04:57 46.1 °F 45.0 °F 29.77 in Calm     96 % 0.00 in 0.0 W/m2 OVC
05:02 46.0 °F 44.9 °F 29.77 in Calm     96 % 0.00 in 0.0 W/m2 OVC
05:07 46.0 °F 44.9 °F 29.77 in Calm     96 % 0.00 in 0.0 W/m2 OVC
05:12 45.9 °F 44.8 °F 29.77 in Calm     96 % 0.00 in 0.0 W/m2 OVC
05:17 45.9 °F 44.8 °F 29.77 in Calm     96 % 0.00 in 0.0 W/m2 OVC
05:22 45.7 °F 44.6 °F 29.77 in Calm     96 % 0.00 in 0.0 W/m2 OVC
05:23 45.8 °F 44.7 °F 29.77 in Calm     96 % 0.00 in 0.0 W/m2 OVC
05:28 45.7 °F 44.6 °F 29.77 in Calm     96 % 0.00 in 0.0 W/m2 OVC
05:33 45.7 °F 44.6 °F 29.77 in Calm     96 % 0.00 in 0.0 W/m2 OVC
05:38 45.8 °F 44.7 °F 29.76 in Calm     96 % 0.00 in 0.0 W/m2 OVC
05:43 45.6 °F 44.5 °F 29.77 in Calm   2.3 mph 96 % 0.00 in 0.0 W/m2 OVC
05:48 45.5 °F 44.4 °F 29.76 in Calm   2.3 mph 96 % 0.00 in 0.0 W/m2 OVC
05:49 45.5 °F 44.4 °F 29.76 in Calm   2.3 mph 96 % 0.00 in 0.0 W/m2 OVC
05:54 45.4 °F 44.3 °F 29.77 in Calm     96 % 0.00 in 5.0 W/m2 OVC
05:59 45.4 °F 44.3 °F 29.77 in Calm     96 % 0.00 in 9.0 W/m2 OVC
06:04 45.4 °F 44.3 °F 29.77 in Calm     96 % 0.00 in 11.0 W/m2 OVC
06:09 45.4 °F 44.3 °F 29.77 in Calm     96 % 0.00 in 14.0 W/m2 OVC
06:14 45.5 °F 44.4 °F 29.78 in Calm     96 % 0.00 in 18.0 W/m2 OVC
06:19 45.6 °F 44.5 °F 29.77 in Calm     96 % 0.00 in 25.0 W/m2 OVC
06:24 45.6 °F 44.5 °F 29.77 in NW 0.1 mph 1.2 mph 96 % 0.00 in 28.0 W/m2 OVC
06:29 45.6 °F 44.5 °F 29.77 in Calm   1.2 mph 96 % 0.00 in 26.0 W/m2 OVC
06:34 45.6 °F 44.5 °F 29.77 in NW 1.2 mph 3.5 mph 96 % 0.00 in 37.0 W/m2 OVC
06:39 45.4 °F 44.3 °F 29.77 in WNW 0.1 mph 3.5 mph 96 % 0.00 in 51.0 W/m2 OVC
06:44 45.6 °F 44.5 °F 29.77 in WSW 1.6 mph 5.8 mph 96 % 0.00 in 49.0 W/m2 OVC
06:49 45.6 °F 44.5 °F 29.77 in WSW 2.5 mph 5.8 mph 96 % 0.00 in 56.0 W/m2 OVC
06:54 45.7 °F 44.6 °F 29.77 in WSW 2.3 mph 5.8 mph 96 % 0.00 in 63.0 W/m2 OVC
07:00 45.9 °F 44.8 °F 29.78 in Calm   4.6 mph 96 % 0.00 in 56.0 W/m2 OVC
07:05 46.0 °F 44.9 °F 29.77 in WSW 1.1 mph 3.5 mph 96 % 0.00 in 63.0 W/m2 OVC
07:10 46.1 °F 45.0 °F 29.77 in WSW 1.0 mph 5.0 mph 96 % 0.00 in 79.0 W/m2 OVC
07:15 46.2 °F 45.1 °F 29.78 in Calm   4.6 mph 96 % 0.00 in 84.0 W/m2 OVC
07:20 46.5 °F 45.4 °F 29.77 in WSW 1.0 mph 5.0 mph 96 % 0.00 in 90.0 W/m2 OVC
07:21 46.5 °F 45.4 °F 29.77 in Calm   4.6 mph 96 % 0.00 in 95.0 W/m2 OVC
07:26 46.7 °F 45.6 °F 29.77 in West 2.2 mph 4.6 mph 96 % 0.00 in 97.0 W/m2 OVC
07:31 47.0 °F 45.9 °F 29.78 in SW 1.0 mph 3.5 mph 96 % 0.00 in 107.0 W/m2 OVC
07:36 47.2 °F 46.1 °F 29.77 in SW 0.6 mph 3.5 mph 96 % 0.00 in 123.0 W/m2 OVC
07:37 47.2 °F 46.1 °F 29.77 in Calm   3.5 mph 96 % 0.00 in 127.0 W/m2 OVC
07:43 47.2 °F 46.1 °F 29.77 in SW 2.9 mph 4.6 mph 96 % 0.00 in 151.0 W/m2 OVC
07:48 47.5 °F 46.4 °F 29.77 in SW 1.8 mph 4.6 mph 96 % 0.00 in 156.0 W/m2 OVC
07:53 47.7 °F 46.6 °F 29.77 in SW 1.3 mph 4.6 mph 96 % 0.00 in 132.0 W/m2 OVC
07:58 47.9 °F 46.8 °F 29.77 in SW 0.2 mph 3.5 mph 96 % 0.00 in 232.0 W/m2 OVC
08:03 48.2 °F 47.1 °F 29.77 in WSW 2.3 mph 4.6 mph 96 % 0.00 in 181.0 W/m2 OVC
08:08 48.6 °F 47.5 °F 29.77 in WSW 0.4 mph 4.6 mph 96 % 0.00 in 144.0 W/m2 OVC
08:13 48.7 °F 47.6 °F 29.77 in SW 3.2 mph 5.8 mph 96 % 0.00 in 86.0 W/m2 OVC
08:18 48.6 °F 47.2 °F 29.77 in SW 1.7 mph 6.9 mph 95 % 0.00 in 267.0 W/m2 OVC
08:23 48.8 °F 47.4 °F 29.76 in WSW 0.7 mph 6.9 mph 95 % 0.00 in 301.0 W/m2 OVC
08:28 49.3 °F 47.9 °F 29.76 in WSW 0.9 mph 6.9 mph 95 % 0.00 in 158.0 W/m2 OVC
08:33 49.3 °F 47.9 °F 29.76 in Calm   3.5 mph 95 % 0.00 in 160.0 W/m2 OVC
08:38 49.5 °F 48.1 °F 29.76 in SW 1.5 mph 3.5 mph 95 % 0.00 in 135.0 W/m2 OVC
08:43 49.4 °F 48.0 °F 29.76 in West 3.0 mph 6.9 mph 95 % 0.00 in 118.0 W/m2 OVC
08:48 49.6 °F 48.2 °F 29.75 in WSW 2.1 mph 6.9 mph 95 % 0.00 in 120.0 W/m2 OVC
08:53 49.6 °F 47.9 °F 29.76 in West 4.0 mph 8.1 mph 94 % 0.00 in 149.0 W/m2 OVC
08:58 49.7 °F 48.0 °F 29.76 in WSW 0.8 mph 8.1 mph 94 % 0.00 in 160.0 W/m2 OVC
09:03 49.8 °F 48.1 °F 29.75 in SW 3.1 mph 6.9 mph 94 % 0.00 in 183.0 W/m2 OVC
09:08 49.8 °F 48.1 °F 29.75 in WSW 1.0 mph 4.6 mph 94 % 0.00 in 176.0 W/m2 OVC
09:13 50.1 °F 48.4 °F 29.75 in West 3.5 mph 5.8 mph 94 % 0.00 in 171.0 W/m2 OVC
09:18 50.1 °F 48.2 °F 29.76 in West 2.1 mph 9.2 mph 93 % 0.00 in 169.0 W/m2 OVC
09:23 50.5 °F 48.6 °F 29.76 in West 5.0 mph 9.2 mph 93 % 0.00 in 348.0 W/m2 OVC
09:28 50.9 °F 48.9 °F 29.76 in West 4.2 mph 9.2 mph 93 % 0.00 in 218.0 W/m2 OVC
09:33 51.2 °F 49.2 °F 29.75 in WSW 3.1 mph 9.2 mph 93 % 0.00 in 120.0 W/m2 OVC
09:38 51.0 °F 48.8 °F 29.75 in West 3.6 mph 8.1 mph 92 % 0.00 in 141.0 W/m2 OVC
09:44 50.8 °F 48.6 °F 29.75 in WSW 1.4 mph 8.1 mph 92 % 0.00 in 216.0 W/m2 OVC
09:49 51.0 °F 48.8 °F 29.75 in West 1.2 mph 6.9 mph 92 % 0.00 in 207.0 W/m2 OVC
09:54 51.2 °F 48.7 °F 29.75 in Calm   6.9 mph 91 % 0.00 in 156.0 W/m2 OVC
09:59 51.3 °F 48.8 °F 29.75 in WSW 4.0 mph 6.9 mph 91 % 0.00 in 186.0 W/m2 OVC
10:04 51.4 °F 48.9 °F 29.74 in Calm   6.9 mph 91 % 0.00 in 167.0 W/m2 OVC
10:09 51.5 °F 49.0 °F 29.74 in Calm   6.9 mph 91 % 0.00 in 220.0 W/m2 OVC
10:14 51.6 °F 49.1 °F 29.74 in WNW 3.1 mph 8.1 mph 91 % 0.00 in 297.0 W/m2 OVC
10:19 51.8 °F 49.0 °F 29.74 in WSW 3.5 mph 9.2 mph 90 % 0.00 in 271.0 W/m2 OVC
10:24 51.9 °F 49.1 °F 29.74 in WSW 3.2 mph 10.4 mph 90 % 0.00 in 302.0 W/m2 OVC
10:29 52.5 °F 49.7 °F 29.74 in WSW 2.6 mph 10.4 mph 90 % 0.00 in 524.0 W/m2 OVC
10:34 53.1 °F 50.2 °F 29.74 in WSW 4.1 mph 8.1 mph 90 % 0.00 in 547.0 W/m2 OVC
10:39 53.5 °F 50.0 °F 29.73 in WSW 2.6 mph 8.1 mph 88 % 0.00 in 431.0 W/m2 OVC
10:44 53.9 °F 50.4 °F 29.73 in West 3.1 mph 8.1 mph 88 % 0.00 in 373.0 W/m2 OVC
10:49 54.6 °F 50.8 °F 29.73 in West 2.8 mph 9.2 mph 87 % 0.00 in 853.0 W/m2 OVC
10:54 55.3 °F 51.5 °F 29.73 in WSW 2.2 mph 9.2 mph 87 % 0.00 in 902.0 W/m2 OVC
10:59 55.8 °F 51.7 °F 29.73 in SW 2.7 mph 8.1 mph 86 % 0.00 in 1046.0 W/m2 OVC
11:04 56.1 °F 52.0 °F 29.73 in SW 3.9 mph 9.2 mph 86 % 0.00 in 998.0 W/m2 OVC
11:09 56.5 °F 51.7 °F 29.72 in SW 4.5 mph 9.2 mph 84 % 0.00 in 891.0 W/m2 OVC
11:14 56.5 °F 51.4 °F 29.72 in WSW 2.6 mph 9.2 mph 83 % 0.00 in 882.0 W/m2 OVC
11:19 57.2 °F 52.1 °F 29.72 in SW 4.4 mph 9.2 mph 83 % 0.00 in 900.0 W/m2 OVC
11:24 57.6 °F 52.1 °F 29.72 in West 1.7 mph 10.4 mph 82 % 0.00 in 905.0 W/m2 OVC
11:29 58.0 °F 52.5 °F 29.71 in WSW 4.6 mph 10.4 mph 82 % 0.00 in 984.0 W/m2 OVC
11:34 59.1 °F 52.9 °F 29.71 in West 3.5 mph 8.1 mph 80 % 0.00 in 981.0 W/m2 OVC
11:39 59.2 °F 52.7 °F 29.71 in WSW 2.8 mph 11.5 mph 79 % 0.00 in 947.0 W/m2 OVC
11:44 59.3 °F 52.4 °F 29.71 in West 5.1 mph 11.5 mph 78 % 0.00 in 940.0 W/m2 OVC
11:49 60.0 °F 53.5 °F 29.70 in SSW 4.7 mph 6.9 mph 79 % 0.00 in 958.0 W/m2 OVC
11:54 60.6 °F 52.6 °F 29.70 in SSW 7.4 mph 7.4 mph 75 % 0.00 in 962.0 W/m2 OVC
11:59 60.8 °F 53.2 °F 29.70 in SSW 3.0 mph 11.5 mph 76 % 0.00 in 965.0 W/m2 OVC
12:04 61.1 °F 53.1 °F 29.70 in SW 3.7 mph 11.5 mph 75 % 0.00 in 972.0 W/m2 FEW
12:09 61.3 °F 53.3 °F 29.69 in South 7.9 mph 11.5 mph 75 % 0.00 in 977.0 W/m2 FEW
12:14 61.8 °F 53.8 °F 29.69 in SW 6.2 mph 11.5 mph 75 % 0.00 in 998.0 W/m2 FEW
12:20 61.4 °F 53.4 °F 29.69 in WSW 4.9 mph 11.5 mph 75 % 0.00 in 997.0 W/m2 FEW
12:25 62.0 °F 54.0 °F 29.69 in SSW 5.9 mph 11.5 mph 75 % 0.00 in 981.0 W/m2 FEW
12:30 62.7 °F 54.3 °F 29.69 in SSW 5.3 mph 11.5 mph 74 % 0.00 in 995.0 W/m2 FEW
12:35 62.7 °F 53.9 °F 29.69 in SW 7.0 mph 13.0 mph 73 % 0.00 in 995.0 W/m2 FEW
12:40 63.1 °F 53.9 °F 29.68 in NW 5.9 mph 12.7 mph 72 % 0.00 in 1005.0 W/m2 FEW
12:45 63.4 °F 53.4 °F 29.68 in SW 9.2 mph 12.7 mph 70 % 0.00 in 1058.0 W/m2 FEW
12:50 63.2 °F 53.6 °F 29.68 in SSW 8.0 mph 14.0 mph 71 % 0.00 in 1093.0 W/m2 FEW
12:55 63.3 °F 53.3 °F 29.68 in SW 8.0 mph 16.0 mph 70 % 0.00 in 1042.0 W/m2 FEW
13:00 63.4 °F 53.8 °F 29.68 in SW 2.6 mph 16.1 mph 71 % 0.00 in 1167.0 W/m2 FEW
13:05 63.9 °F 53.5 °F 29.67 in SW 8.0 mph 14.0 mph 69 % 0.00 in 309.0 W/m2 FEW
13:10 64.2 °F 53.0 °F 29.67 in SW 5.9 mph 13.8 mph 67 % 0.00 in 566.0 W/m2 FEW
13:15 64.3 °F 53.1 °F 29.67 in SW 5.4 mph 13.8 mph 67 % 0.00 in 468.0 W/m2 FEW
13:20 64.1 °F 53.0 °F 29.67 in SW 3.0 mph 10.0 mph 67 % 0.00 in 1313.0 W/m2 FEW
13:25 64.1 °F 52.9 °F 29.67 in SW 1.0 mph 12.0 mph 67 % 0.00 in 392.0 W/m2 FEW
13:30 64.6 °F 53.8 °F 29.66 in SW 5.4 mph 15.0 mph 68 % 0.00 in 1000.0 W/m2 FEW
13:35 65.1 °F 53.5 °F 29.66 in WSW 3.8 mph 15.0 mph 66 % 0.00 in 986.0 W/m2 FEW
13:40 65.8 °F 53.7 °F 29.66 in WSW 3.0 mph 13.0 mph 65 % 0.00 in 1005.0 W/m2 FEW
13:45 66.7 °F 53.7 °F 29.66 in WNW 9.4 mph 17.3 mph 63 % 0.00 in 1042.0 W/m2 FEW
13:50 66.3 °F 53.3 °F 29.65 in West 6.2 mph 17.3 mph 63 % 0.00 in 1141.0 W/m2 FEW
13:55 67.0 °F 53.5 °F 29.65 in SSW 6.9 mph 17.3 mph 62 % 0.00 in 1071.0 W/m2 FEW
14:00 66.7 °F 52.8 °F 29.65 in SW 10.0 mph 15.0 mph 61 % 0.00 in 272.0 W/m2 FEW
14:05 67.1 °F 52.7 °F 29.65 in SW 6.0 mph 15.0 mph 60 % 0.00 in 366.0 W/m2 BKN
14:10 67.4 °F 52.1 °F 29.65 in SW 5.8 mph 15.0 mph 58 % 0.00 in 1076.0 W/m2 BKN
14:15 69.7 °F 49.7 °F 29.65 in West 6.4 mph 19.6 mph 49 % 0.00 in 979.0 W/m2 BKN
14:20 70.2 °F 48.4 °F 29.65 in West 11.1 mph 19.6 mph 46 % 0.00 in 998.0 W/m2 BKN
14:22 70.0 °F 48.3 °F 29.65 in NW 9.8 mph 19.6 mph 46 % 0.00 in 998.0 W/m2 BKN
14:27 69.9 °F 48.7 °F 29.64 in West 2.6 mph 19.6 mph 47 % 0.00 in 339.0 W/m2 BKN
14:32 69.6 °F 47.9 °F 29.64 in NNW 9.6 mph 19.6 mph 46 % 0.00 in 371.0 W/m2 BKN
14:37 69.6 °F 48.5 °F 29.64 in WNW 10.4 mph 20.7 mph 47 % 0.00 in 367.0 W/m2 BKN
14:42 69.6 °F 48.5 °F 29.64 in NW 12.4 mph 20.7 mph 47 % 0.00 in 954.0 W/m2 BKN
14:47 68.8 °F 47.7 °F 29.64 in NNW 6.2 mph 19.6 mph 47 % 0.00 in 251.0 W/m2 BKN
14:48 68.3 °F 47.8 °F 29.64 in NNW 2.8 mph 19.6 mph 48 % 0.00 in 251.0 W/m2 BKN
14:53 67.4 °F 46.5 °F 29.65 in NW 8.2 mph 18.4 mph 47 % 0.00 in 295.0 W/m2 BKN
14:58 67.4 °F 46.5 °F 29.64 in North 5.0 mph 15.0 mph 47 % 0.00 in 216.0 W/m2 BKN
15:03 67.4 °F 46.5 °F 29.64 in NW 3.4 mph 16.1 mph 47 % 0.00 in 272.0 W/m2 BKN
15:08 68.3 °F 46.7 °F 29.64 in NW 5.4 mph 16.1 mph 46 % 0.00 in 865.0 W/m2 BKN
15:13 69.5 °F 47.2 °F 29.64 in WNW 6.3 mph 16.1 mph 45 % 0.00 in 889.0 W/m2 BKN
15:18 68.6 °F 47.0 °F 29.63 in West 1.9 mph 16.1 mph 46 % 0.00 in 392.0 W/m2 BKN
15:23 68.0 °F 47.0 °F 29.63 in WSW 1.2 mph 16.1 mph 47 % 0.00 in 371.0 W/m2 BKN
15:28 67.9 °F 46.9 °F 29.63 in WNW 5.1 mph 13.8 mph 47 % 0.00 in 359.0 W/m2 BKN
15:33 68.8 °F 47.7 °F 29.63 in WNW 6.3 mph 13.8 mph 47 % 0.00 in 900.0 W/m2 BKN
15:38 69.1 °F 48.6 °F 29.63 in West 7.7 mph 15.0 mph 48 % 0.00 in 925.0 W/m2 BKN
15:43 69.4 °F 48.3 °F 29.63 in WSW 2.4 mph 15.0 mph 47 % 0.00 in 223.0 W/m2 BKN
15:48 68.7 °F 47.6 °F 29.63 in WNW 4.0 mph 16.1 mph 47 % 0.00 in 114.0 W/m2 BKN
15:53 68.0 °F 48.1 °F 29.63 in WNW 7.2 mph 21.9 mph 49 % 0.00 in 163.0 W/m2 BKN
15:58 67.0 °F 48.8 °F 29.63 in NNE 10.9 mph 21.9 mph 52 % 0.00 in 831.0 W/m2 BKN
16:03 66.7 °F 50.0 °F 29.63 in NW 7.5 mph 19.6 mph 55 % 0.00 in 749.0 W/m2 -RA
16:08 67.2 °F 49.5 °F 29.63 in NW 8.0 mph 19.6 mph 53 % 0.00 in 694.0 W/m2 -RA
16:14 66.8 °F 48.6 °F 29.63 in NW 9.0 mph 16.1 mph 52 % 0.00 in 160.0 W/m2 -RA
16:19 66.9 °F 48.2 °F 29.63 in NNW 3.8 mph 16.1 mph 51 % 0.00 in 733.0 W/m2 -RA
16:24 68.2 °F 48.3 °F 29.62 in WNW 2.1 mph 16.1 mph 49 % 0.00 in 675.0 W/m2 -RA
16:29 68.7 °F 47.1 °F 29.62 in NNW 2.2 mph 19.6 mph 46 % 0.00 in 650.0 W/m2 -RA
16:34 69.2 °F 46.9 °F 29.62 in NW 3.1 mph 19.6 mph 45 % 0.00 in 640.0 W/m2 -RA
16:39 69.6 °F 46.7 °F 29.62 in North 7.3 mph 12.7 mph 44 % 0.00 in 612.0 W/m2 -RA
16:44 69.0 °F 46.8 °F 29.61 in NNW 9.9 mph 19.6 mph 45 % 0.00 in 613.0 W/m2 -RA
16:49 68.7 °F 47.1 °F 29.62 in NW 8.7 mph 19.6 mph 46 % 0.00 in 628.0 W/m2 -RA
16:54 68.8 °F 48.3 °F 29.61 in NNW 5.5 mph 17.3 mph 48 % 0.00 in 570.0 W/m2 -RA
16:59 68.8 °F 47.2 °F 29.62 in WNW 2.1 mph 13.8 mph 46 % 0.00 in 557.0 W/m2 -RA
17:04 69.0 °F 47.9 °F 29.61 in NW 0.2 mph 13.8 mph 47 % 0.00 in 534.0 W/m2 FEW
17:09 68.8 °F 47.2 °F 29.61 in NW 1.3 mph 11.5 mph 46 % 0.00 in 86.0 W/m2 FEW
17:14 67.8 °F 46.8 °F 29.61 in WNW 7.1 mph 12.7 mph 47 % 0.00 in 118.0 W/m2 FEW
17:19 67.3 °F 46.9 °F 29.61 in WNW 4.8 mph 12.7 mph 48 % 0.00 in 120.0 W/m2 FEW
17:24 67.1 °F 47.3 °F 29.61 in WSW 2.8 mph 11.5 mph 49 % 0.00 in 102.0 W/m2 FEW
17:30 66.9 °F 47.1 °F 29.61 in West 1.1 mph 11.5 mph 49 % 0.00 in 70.0 W/m2 FEW
17:35 66.8 °F 47.6 °F 29.62 in WSW 3.0 mph 14.0 mph 50 % 0.00 in 74.0 W/m2 FEW
17:40 66.3 °F 48.7 °F 29.62 in SSW 0.2 mph 13.8 mph 53 % 0.00 in 56.0 W/m2 FEW
17:45 65.6 °F 49.0 °F 29.61 in Calm   10.4 mph 55 % 0.00 in 56.0 W/m2 FEW
17:50 65.2 °F 50.0 °F 29.61 in Calm   2.0 mph 58 % 0.00 in 95.0 W/m2 FEW
17:55 64.7 °F 49.6 °F 29.61 in WSW 1.0 mph 4.0 mph 58 % 0.00 in 158.0 W/m2 FEW
18:00 64.9 °F 49.8 °F 29.61 in West 0.8 mph 5.8 mph 58 % 0.00 in 197.0 W/m2 FEW
18:05 65.2 °F 50.0 °F 29.61 in NW 0.1 mph 5.8 mph 58 % 0.00 in 163.0 W/m2 BKN
18:10 65.4 °F 48.3 °F 29.61 in Calm   8.1 mph 54 % 0.00 in 162.0 W/m2 BKN
18:15 65.4 °F 49.3 °F 29.61 in West 0.9 mph 8.1 mph 56 % 0.00 in 120.0 W/m2 BKN
18:20 65.5 °F 49.9 °F 29.61 in Calm   8.1 mph 57 % 0.00 in 167.0 W/m2 BKN
18:25 65.2 °F 50.0 °F 29.61 in SW 1.0 mph 6.0 mph 58 % 0.00 in 76.0 W/m2 BKN
18:30 64.7 °F 49.6 °F 29.60 in Calm   5.8 mph 58 % 0.00 in 83.0 W/m2 BKN
18:35 64.7 °F 49.6 °F 29.60 in SW 0.5 mph 5.8 mph 58 % 0.00 in 81.0 W/m2 BKN
18:40 65.0 °F 49.4 °F 29.60 in WSW 0.5 mph 5.8 mph 57 % 0.00 in 234.0 W/m2 BKN
18:45 65.3 °F 49.7 °F 29.59 in Calm   5.8 mph 57 % 0.00 in 121.0 W/m2 BKN
18:50 65.6 °F 49.5 °F 29.59 in WSW 0.6 mph 6.9 mph 56 % 0.00 in 223.0 W/m2 BKN
18:55 66.1 °F 49.5 °F 29.59 in WSW 0.9 mph 9.2 mph 55 % 0.00 in 199.0 W/m2 BKN
19:00 66.3 °F 50.1 °F 29.59 in WSW 1.7 mph 9.2 mph 56 % 0.00 in 178.0 W/m2 BKN
19:05 66.1 °F 50.4 °F 29.60 in SW 3.5 mph 10.4 mph 57 % 0.00 in 160.0 W/m2 -RA
19:10 65.9 °F 50.2 °F 29.60 in Calm   13.8 mph 57 % 0.00 in 144.0 W/m2 -RA
19:15 65.8 °F 49.2 °F 29.60 in West 5.7 mph 13.8 mph 55 % 0.00 in 88.0 W/m2 -RA
19:20 65.6 °F 48.0 °F 29.60 in WSW 1.7 mph 15.0 mph 53 % 0.00 in 42.0 W/m2 -RA
19:25 65.3 °F 47.2 °F 29.60 in WSW 6.7 mph 15.0 mph 52 % 0.00 in 53.0 W/m2 -RA
19:30 65.1 °F 46.5 °F 29.61 in WNW 5.9 mph 13.8 mph 51 % 0.00 in 47.0 W/m2 -RA
19:35 65.0 °F 45.4 °F 29.61 in WNW 10.5 mph 19.6 mph 49 % 0.00 in 37.0 W/m2 -RA
19:40 65.0 °F 45.4 °F 29.63 in North 4.8 mph 19.6 mph 49 % 0.00 in 25.0 W/m2 -RA
19:45 63.2 °F 47.2 °F 29.62 in NNW 0.7 mph 19.6 mph 56 % 0.00 in 14.0 W/m2 -RA
19:50 61.6 °F 47.1 °F 29.63 in NW 0.6 mph 10.4 mph 59 % 0.00 in 14.0 W/m2 -RA
19:55 60.9 °F 47.4 °F 29.63 in North 3.3 mph 10.4 mph 61 % 0.00 in 11.0 W/m2 -RA
20:00 60.7 °F 47.2 °F 29.64 in NNW 0.8 mph 8.1 mph 61 % 0.00 in 9.0 W/m2 -RA
20:05 60.3 °F 46.4 °F 29.64 in NW 5.1 mph 8.1 mph 60 % 0.00 in 0.0 W/m2 -RA
20:10 60.1 °F 46.2 °F 29.64 in Calm   9.2 mph 60 % 0.00 in 0.0 W/m2 -RA
20:15 59.9 °F 46.4 °F 29.64 in NW 2.8 mph 9.2 mph 61 % 0.00 in 0.0 W/m2 -RA
20:20 59.7 °F 46.2 °F 29.64 in Calm   8.1 mph 61 % 0.00 in 0.0 W/m2 -RA
20:25 59.4 °F 46.4 °F 29.65 in Calm   8.1 mph 62 % 0.00 in 0.0 W/m2 -RA
20:30 59.2 °F 46.6 °F 29.66 in Calm     63 % 0.00 in 0.0 W/m2 -RA
20:35 59.0 °F 46.8 °F 29.66 in NW 0.3 mph 3.5 mph 64 % 0.00 in 0.0 W/m2 -RA
20:40 58.8 °F 47.1 °F 29.67 in Calm   3.5 mph 65 % 0.00 in 0.0 W/m2 -RA
20:45 58.8 °F 47.5 °F 29.67 in NNW 4.6 mph 9.2 mph 66 % 0.00 in 0.0 W/m2 -RA
20:50 58.7 °F 47.4 °F 29.69 in North 3.8 mph 10.4 mph 66 % 0.00 in 0.0 W/m2 -RA
20:55 58.6 °F 47.3 °F 29.69 in North 9.5 mph 18.4 mph 66 % 0.00 in 0.0 W/m2 -RA
21:01 57.3 °F 46.0 °F 29.70 in NNE 9.3 mph 23.0 mph 66 % 0.00 in 0.0 W/m2 -RA
21:06 56.0 °F 45.2 °F 29.71 in NE 5.0 mph 23.0 mph 67 % 0.00 in 0.0 W/m2 -RA
21:11 55.2 °F 45.2 °F 29.71 in NNW 0.1 mph 17.3 mph 69 % 0.00 in 0.0 W/m2 -RA
21:16 54.3 °F 45.1 °F 29.72 in North 6.0 mph 12.7 mph 71 % 0.00 in 0.0 W/m2 -RA
21:21 53.7 °F 44.9 °F 29.72 in NNE 7.0 mph 19.6 mph 72 % 0.00 in 0.0 W/m2 -RA
21:26 53.4 °F 45.0 °F 29.72 in NNW 7.5 mph 19.6 mph 73 % 0.00 in 0.0 W/m2 -RA
21:31 53.1 °F 45.0 °F 29.72 in NNW 5.3 mph 19.6 mph 74 % 0.00 in 0.0 W/m2 -RA
21:36 52.9 °F 45.2 °F 29.72 in North 5.5 mph 13.8 mph 75 % 0.00 in 0.0 W/m2 -RA
21:41 52.6 °F 45.2 °F 29.73 in NNW 7.9 mph 13.8 mph 76 % 0.00 in 0.0 W/m2 -RA
21:46 52.4 °F 45.4 °F 29.73 in NW 6.2 mph 13.8 mph 77 % 0.00 in 0.0 W/m2 -RA
21:51 52.2 °F 45.2 °F 29.73 in NW 5.5 mph 11.5 mph 77 % 0.00 in 0.0 W/m2 -RA
21:56 52.1 °F 45.4 °F 29.73 in NW 5.2 mph 11.5 mph 78 % 0.00 in 0.0 W/m2 -RA
22:01 52.1 °F 45.1 °F 29.73 in NNW 8.3 mph 11.5 mph 77 % 0.00 in 0.0 W/m2 BKN
22:06 52.1 °F 45.1 °F 29.73 in WNW 4.4 mph 11.5 mph 77 % 0.00 in 0.0 W/m2 BKN
22:11 52.3 °F 45.0 °F 29.73 in NW 9.4 mph 13.8 mph 76 % 0.00 in 0.0 W/m2 BKN
22:16 52.8 °F 44.7 °F 29.74 in NW 7.8 mph 15.0 mph 74 % 0.00 in 0.0 W/m2 BKN
22:21 53.2 °F 44.4 °F 29.74 in NW 5.7 mph 15.0 mph 72 % 0.00 in 0.0 W/m2 BKN
22:26 53.4 °F 43.9 °F 29.74 in NW 8.0 mph 15.0 mph 70 % 0.00 in 0.0 W/m2 BKN
22:27 53.4 °F 43.9 °F 29.74 in NW 7.4 mph 15.0 mph 70 % 0.00 in 0.0 W/m2 BKN
22:32 53.5 °F 43.2 °F 29.74 in NNW 9.2 mph 16.1 mph 68 % 0.00 in 0.0 W/m2 BKN
22:37 53.7 °F 43.0 °F 29.74 in NW 6.5 mph 18.4 mph 67 % 0.00 in 0.0 W/m2 BKN
22:38 53.7 °F 43.0 °F 29.74 in NW 7.8 mph 18.4 mph 67 % 0.00 in 0.0 W/m2 BKN
22:43 53.6 °F 42.5 °F 29.74 in NW 7.3 mph 18.4 mph 66 % 0.00 in 0.0 W/m2 BKN
22:48 53.5 °F 42.4 °F 29.75 in NW 4.9 mph 13.8 mph 66 % 0.00 in 0.0 W/m2 BKN
22:53 53.3 °F 42.2 °F 29.74 in WNW 4.8 mph 11.5 mph 66 % 0.00 in 0.0 W/m2 BKN
22:58 53.4 °F 42.3 °F 29.74 in NW 4.2 mph 10.4 mph 66 % 0.00 in 0.0 W/m2 BKN
23:03 53.2 °F 42.1 °F 29.74 in NW 5.3 mph 10.4 mph 66 % 0.00 in 0.0 W/m2 CLR
23:08 53.1 °F 42.0 °F 29.74 in NNW 2.9 mph 10.4 mph 66 % 0.00 in 0.0 W/m2 CLR
23:13 53.0 °F 41.5 °F 29.74 in NW 4.3 mph 10.4 mph 65 % 0.00 in 0.0 W/m2 CLR
23:18 53.0 °F 41.5 °F 29.74 in WNW 2.0 mph 10.4 mph 65 % 0.00 in 0.0 W/m2 CLR
23:23 53.0 °F 41.1 °F 29.74 in NW 3.1 mph 9.2 mph 64 % 0.00 in 0.0 W/m2 CLR
23:28 53.3 °F 41.0 °F 29.74 in WNW 6.4 mph 16.1 mph 63 % 0.00 in 0.0 W/m2 CLR
23:33 53.5 °F 40.8 °F 29.73 in NW 9.1 mph 16.1 mph 62 % 0.00 in 0.0 W/m2 CLR
23:38 53.7 °F 40.6 °F 29.73 in West 10.9 mph 17.3 mph 61 % 0.00 in 0.0 W/m2 CLR
23:43 53.8 °F 40.2 °F 29.74 in West 6.9 mph 17.3 mph 60 % 0.00 in 0.0 W/m2 CLR
23:48 53.8 °F 39.8 °F 29.74 in WNW 7.2 mph 18.4 mph 59 % 0.00 in 0.0 W/m2 CLR
23:53 53.8 °F 39.8 °F 29.74 in WNW 3.7 mph 18.4 mph 59 % 0.00 in 0.0 W/m2 CLR
23:58 53.7 °F 39.7 °F 29.74 in West 5.6 mph 17.3 mph 59 % 0.00 in 0.0 W/m2 CLR
Air Products Campus Weather
Compliments of Weather Underground - 3.5 mb